Thursday, May 24, 2018, 3:28 PM EDT
Back to Local

KCXY, Harrisburg Capital City

Location: New Cumberland, PA, United States Lat: 40.217
Local Time: 3:28 PM EDT (19:28 GMT) Lon: -76.85
Time Zone: US/Eastern Elev: 347 ft

Show me the last for .
Show Coded

Time T Td Feel RH Dir Speed Gust Alt SLP Vis Weather Sky Remarks
2018-05-24 14:56 84 45 - 25 Variable 7 - 30.16 30.15 10 CLR None
2018-05-24 13:56 83 46 - 27 300° 7 - 30.17 30.16 10 CLR 6-hr Min Temp (2pm): 69.1°F
6-hr Max Temp (2pm): 82.9°F
2018-05-24 12:56 81 46 - 29 330° 9 - 30.18 30.17 10 CLR None
2018-05-24 11:56 79 47 - 32 Variable 3 - 30.19 30.19 10 CLR None
2018-05-24 10:56 76 46 - 34 330° 5 - 30.20 30.19 10 CLR None
2018-05-24 09:56 74 47 - 38 320° 6 - 30.20 30.20 10 CLR None
2018-05-24 08:56 71 47 75 42 310° 6 - 30.20 30.19 10 CLR None
2018-05-24 07:56 69 53 - 56 - Calm - 30.19 30.19 10 CLR 6-hr Min Temp (8am): 55.9°F
6-hr Max Temp (8am): 69.1°F
2018-05-24 06:56 61 54 - 77 - Calm - 30.18 30.18 10 CLR None
2018-05-24 05:56 56 52 - 86 - Calm - 30.15 30.15 10 CLR None
2018-05-24 04:56 57 53 - 86 290° 3 - 30.13 30.13 10 CLR None
2018-05-24 03:56 62 56 - 80 - Calm - 30.12 30.11 10 CLR None
2018-05-24 02:56 63 55 - 75 - Calm - 30.11 30.11 10 CLR None
2018-05-24 01:56 65 56 - 72 300° 3 - 30.11 30.10 10 CLR 6-hr Min Temp (2am): 63.0°F
6-hr Max Temp (2am): 75.0°F
2018-05-24 00:56 66 57 - 72 270° 5 - 30.10 30.10 10 CLR 24-hr Min Temp (1am): 64.0°F
24-hr Max Temp (1am): 80.1°F
2018-05-23 23:56 66 57 - 72 - Calm - 30.09 30.09 10 CLR None
2018-05-23 22:56 67 57 - 70 260° 7 - 30.07 30.07 10 CLR None
2018-05-23 21:56 67 57 - 70 250° 5 - 30.07 30.06 10 CLR None
2018-05-23 20:56 68 58 - 70 240° 5 - 30.06 30.05 10 CLR None
2018-05-23 19:56 74 55 77 51 270° 3 - 30.04 30.04 10 CLR 6-hr Min Temp (8pm): 73.9°F
6-hr Max Temp (8pm): 80.1°F
2018-05-23 18:56 78 54 79 43 Variable 5 - 30.04 30.03 10 CLR None
2018-05-23 17:56 80 52 - 37 310° 6 - 30.04 30.03 10 CLR None
2018-05-23 16:56 79 52 - 39 320° 13 - 30.03 30.03 10 CLR None
2018-05-23 15:56 79 54 79 42 340° 13 - 30.03 30.02 10 SCT030 None

Support USWX by starting your Amazon purchase here.